Newport, Mississippi
Current Conditions -  °F | °C
As of 2:54 PM on Saturday 22 Nov 2014 (Local Time) from KMEM Reporting Station
Broken Clouds Broken Clouds  
Wind Chill: 65°   Ceiling: 5000
Heat Index: 65°   Visibility: 10mi
Dew Point: 40°   Wind: 9mph
Humidity: 40%   Direction: 160°SSE
Pressure: 30.08"   Gusts: NA
Location:  34.9155°N, 90.1878°W
Report Text: KMEM 222054Z 16008KT 10SM BKN050 BKN250 18/04 A3008 RMK AO2 SLP185 T01830044 56031 $
Loading
Personal Weather Stations






























Interactive Weather Map New forecast layout! Learn more

10-Day Weather Forecast

Advertisements
Track Severe Weather on mobile